Skip Navigation LinksHome page > Weather > Current weather Skip Navigation Links

Current Weather

Alert, Nunavut

For information only: do not use for flight planning or navigation.
Latest weather
Observation time Friday, January 30, 2015 8:00 AM EST
Local time Friday, January 30, 2015 8:54 AM EST
Flight conditions Visual Meteorological Conditions
Winds
Wind direction West-Northwest (290°)
Wind speed 6 mph
Visibility 7 mi.
Present weather light snow
Sky condition
Ceiling 11,000 ft. broken clouds
Cloud layer few clouds 4,500 ft.
Cloud layer broken clouds 11,000 ft.
Temperature -27°F
Dewpoint -36°F
Altimeter 30.20 in.Hg
Derived measurements
Relative humidity 61%
Wind chill -44°F
Density altitude -6670 ft.
Sea-level pressure 30.22 in.Hg
METAR CYLT 301300Z 29005KT 7SM -SN FEW045 BKN110 M33/M38 A3020 RMK SC2AC2 FST OBS SLP234

Settings

Location code

InnerDrive.Weather 4.0.5505.0 Release CLR 4.0.30319.34014
Copyright ©2015 Inner Drive Technology. All rights reserved. Portions Copyright ©1986-2015 David Braverman.

Find weather

Site navigation


Skip Navigation Links

Place info

Page info

PayPal - The safer, easier way to pay online!

Return home.

Copyright ©2015 Inner Drive Technology. Purveyors of fine, hand-crafted computer software. Page printed 2015-01-30T13:54:24 UTC.